Thursday, July 24, 2014, 2:24 AM EDT

KGED, Georgetown Sussex Co Airport

Location: Georgetown, DE, United States Lat: 38.683
Local Time: 2:24 AM EDT ( 6:24 GMT) Lon: -75.367
Time Zone: US/Eastern Elev: 52 ft

Show me the last for .
Show Decoded

2014-07-24 01:10 METAR KGED 240510Z AUTO 12004KT 10SM FEW110 23/21 A2986 RMK AO2 WSHFT 0450
                 RAE0456 P0000 T02330211 =
2014-07-24 00:54 METAR KGED 240454Z AUTO 08010KT 10SM -RA SCT110 23/22 A2986 RMK AO2 LTG DSNT
                 E-SW TSE19 SLP109 P0003 T02330217 403280194 =
2014-07-24 00:25 METAR KGED 240425Z AUTO 09012KT 10SM VCTS -RA SCT110 24/22 A2985 RMK AO2 LTG
                 DSNT ALQDS TSE19 P0002 T02390217 =
2014-07-23 23:54 METAR KGED 240354Z AUTO VRB05KT 5SM -TSRA FEW022 BKN048 OVC100 24/22 A2986 RMK
                 AO2 LTG DSNT ALQDS RAB41 TSB42 SLP110 P0003 T02440217 =
2014-07-23 23:10 METAR KGED 240310Z AUTO 07010KT 10SM FEW017 SCT021 BKN049 27/23 A2986 RMK AO2
                 LTG DSNT W-NE T02670228 =
2014-07-23 22:54 METAR KGED 240254Z AUTO 08011KT 10SM VCTS FEW014 SCT070 SCT085 26/23 A2986 RMK
                 AO2 LTG DSNT W-NE SLP110 T02610228 55000 =
2014-07-23 21:54 METAR KGED 240154Z AUTO 16013KT 10SM CLR 26/23 A2984 RMK AO2 SLP103 T02610228 =
2014-07-23 20:54 METAR KGED 240054Z AUTO 16012KT 10SM CLR 27/22 A2986 RMK AO2 SLP111 T02720222 =
2014-07-23 19:54 METAR KGED 232354Z AUTO 17011KT 10SM CLR 28/22 A2986 RMK AO2 SLP110 T02830222
                 10328 20283 55003 =
2014-07-23 18:54 METAR KGED 232254Z AUTO 18015KT 10SM CLR 31/22 A2984 RMK AO2 SLP103 T03060222 =
2014-07-23 17:54 METAR KGED 232154Z AUTO 20012KT 10SM CLR 32/22 A2984 RMK AO2 SLP104 T03170217 =
2014-07-23 16:54 METAR KGED 232054Z AUTO 19013G18KT 10SM CLR 32/21 A2987 RMK AO2 SLP113 T03220206
                 56021 =
2014-07-23 14:54 METAR KGED 231854Z AUTO 21011KT 10SM CLR 32/21 A2991 RMK AO2 SLP127 T03220211 =
2014-07-23 13:54 METAR KGED 231754Z AUTO 19011KT 10SM SCT040 32/22 A2993 RMK AO2 SLP134 T03170222
                 10317 20228 56022 =
2014-07-23 12:54 METAR KGED 231654Z AUTO 19010KT 10SM FEW032 31/22 A2994 RMK AO2 SLP138 T03110217
                 =
2014-07-23 11:54 METAR KGED 231554Z AUTO 18009KT 10SM SCT025 SCT030 31/23 A2997 RMK AO2 SLP147
                 T03060228 =
2014-07-23 10:54 METAR KGED 231454Z AUTO 18012KT 10SM FEW021 29/23 A3000 RMK AO2 SLP156 T02890228
                 58012 =
2014-07-23 09:54 METAR KGED 231354Z AUTO 18009KT 10SM FEW014 27/23 A3001 RMK AO2 SLP162 T02720228
                 =
2014-07-23 08:54 METAR KGED 231254Z AUTO 19009KT 10SM FEW008 26/23 A3003 RMK AO2 SLP168 T02610228
                 =
2014-07-23 07:54 METAR KGED 231154Z AUTO 17010KT 9SM SCT003 23/22 A3003 RMK AO2 SLP169 T02280217
                 10228 20194 53000 =
2014-07-23 07:20 METAR KGED 231120Z AUTO 17008KT 3SM BR OVC002 22/21 A3003 RMK AO2 T02170211 =
2014-07-23 07:13 METAR KGED 231113Z AUTO 17008KT 1 1/4SM BR OVC002 21/21 A3003 RMK AO2 T02110206
                 =
2014-07-23 06:54 METAR KGED 231054Z AUTO 17009KT 1/2SM FG OVC002 21/21 A3003 RMK AO2 SLP166
                 T02110206 =
2014-07-23 06:18 METAR KGED 231018Z AUTO 17009KT 3/4SM BR OVC002 21/20 A3002 RMK AO2 T02060200 =
2014-07-23 06:14 METAR KGED 231014Z AUTO 16008KT 1 3/4SM BR OVC002 21/20 A3002 RMK AO2 T02060200
                 =
2014-07-23 06:07 METAR KGED 231007Z AUTO 16008KT 3SM BR OVC002 21/20 A3002 RMK AO2 T02060200 =
2014-07-23 05:54 METAR KGED 230954Z AUTO 17008KT 1 1/4SM BR OVC002 21/20 A3003 RMK AO2 SLP166
                 T02060200 =
2014-07-23 05:27 METAR KGED 230927Z AUTO 17009KT 1 1/4SM BR OVC002 21/20 A3003 RMK AO2 T02110200
                 =
2014-07-23 05:06 METAR KGED 230906Z AUTO 17009KT 3/4SM BR OVC002 21/20 A3003 RMK AO2 T02110200 =
2014-07-23 04:58 METAR KGED 230858Z AUTO 17009KT 1SM BR OVC002 21/20 A3003 RMK AO2 T02110200 =
2014-07-23 04:54 METAR KGED 230854Z AUTO 17009KT 2 1/2SM BR OVC003 21/20 A3003 RMK AO2 SLP169
                 T02110200 56015 =
2014-07-23 04:34 METAR KGED 230834Z AUTO 17009KT 7SM BKN003 21/19 A3003 RMK AO2 T02060194 =
2014-07-23 03:30 METAR KGED 230730Z AUTO 17008KT 9SM SCT007 21/19 A3005 RMK AO2 T02110194 =
2014-07-23 02:54 METAR KGED 230654Z AUTO 17008KT 10SM CLR 20/19 A3006 RMK AO2 SLP178 T02000189 =

Support USWX by starting your Amazon purchase here.